createdAt,value
2019-03-22T00:00:36.496Z,1010.18
2019-03-22T00:01:36.521Z,1010.22
2019-03-22T00:02:36.546Z,1010.18
2019-03-22T00:03:36.573Z,1010.19
2019-03-22T00:04:36.598Z,1010.18
2019-03-22T00:05:36.625Z,1010.17
2019-03-22T00:06:36.649Z,1010.18
2019-03-22T00:07:36.675Z,1010.17
2019-03-22T00:08:36.701Z,1010.15
2019-03-22T00:09:36.741Z,1010.14
2019-03-22T00:10:36.752Z,1010.21
2019-03-22T00:11:36.781Z,1010.19
2019-03-22T00:12:36.807Z,1010.16
2019-03-22T00:13:36.832Z,1010.22
2019-03-22T00:14:37.244Z,1010.18
2019-03-22T00:15:36.880Z,1010.22
2019-03-22T00:16:36.907Z,1010.21
2019-03-22T00:17:36.938Z,1010.18
2019-03-22T00:18:36.957Z,1010.21
2019-03-22T00:19:36.997Z,1010.22
2019-03-22T00:20:37.009Z,1010.23
2019-03-22T00:21:37.035Z,1010.21
2019-03-22T00:22:37.060Z,1010.18
2019-03-22T00:23:37.086Z,1010.19
2019-03-22T00:24:37.111Z,1010.20
2019-03-22T00:25:37.137Z,1010.22
2019-03-22T00:26:37.163Z,1010.20
2019-03-22T00:27:37.188Z,1010.15
2019-03-22T00:28:37.214Z,1010.11
2019-03-22T00:29:37.239Z,1010.15
2019-03-22T00:30:37.265Z,1010.13
2019-03-22T00:31:37.291Z,1010.11
2019-03-22T00:32:37.317Z,1010.13
2019-03-22T00:33:37.348Z,1010.13
2019-03-22T00:34:37.368Z,1010.13
2019-03-22T00:35:37.393Z,1010.14
2019-03-22T00:36:37.418Z,1010.15
2019-03-22T00:37:37.445Z,1010.11
2019-03-22T00:38:37.469Z,1010.09
2019-03-22T00:39:37.495Z,1010.06
2019-03-22T00:40:37.520Z,1010.12
2019-03-22T00:41:37.547Z,1010.08
2019-03-22T00:42:37.570Z,1010.02
2019-03-22T00:43:37.596Z,1010.04
2019-03-22T00:44:37.623Z,1009.96
2019-03-22T00:45:37.650Z,1009.96
2019-03-22T00:46:37.673Z,1009.96
2019-03-22T00:47:37.699Z,1009.97
2019-03-22T00:48:37.725Z,1009.96
2019-03-22T00:49:37.751Z,1009.98
2019-03-22T00:50:37.775Z,1009.95
2019-03-22T00:51:37.802Z,1009.97
2019-03-22T00:52:37.827Z,1009.96
2019-03-22T00:53:37.853Z,1009.94
2019-03-22T00:54:37.878Z,1009.96
2019-03-22T00:55:37.910Z,1009.96
2019-03-22T00:56:37.928Z,1009.97
2019-03-22T00:57:37.958Z,1009.94
2019-03-22T00:58:37.978Z,1009.95
2019-03-22T00:59:38.006Z,1009.92
2019-03-22T01:00:38.030Z,1009.98
2019-03-22T01:01:38.058Z,1009.97
2019-03-22T01:02:38.080Z,1009.99
2019-03-22T01:03:38.107Z,1009.98
2019-03-22T01:04:38.131Z,1009.96
2019-03-22T01:05:38.158Z,1009.96
2019-03-22T01:06:38.187Z,1009.96
2019-03-22T01:07:38.211Z,1009.95
2019-03-22T01:08:38.235Z,1009.92
2019-03-22T01:09:38.258Z,1009.93
2019-03-22T01:10:38.284Z,1009.97
2019-03-22T01:11:38.309Z,1009.94
2019-03-22T01:12:38.334Z,1009.97
2019-03-22T01:13:38.359Z,1010.00
2019-03-22T01:14:38.429Z,1009.99
2019-03-22T01:15:38.411Z,1009.99
2019-03-22T01:16:38.437Z,1010.02
2019-03-22T01:17:38.461Z,1009.97
2019-03-22T01:18:38.488Z,1010.01
2019-03-22T01:19:38.511Z,1009.95
2019-03-22T01:20:38.537Z,1009.94
2019-03-22T01:21:38.563Z,1009.92
2019-03-22T01:22:38.590Z,1009.95
2019-03-22T01:23:38.613Z,1009.91
2019-03-22T01:24:38.638Z,1009.91
2019-03-22T01:25:38.665Z,1009.86
2019-03-22T01:26:38.691Z,1009.89
2019-03-22T01:27:40.701Z,1009.86
2019-03-22T01:28:38.741Z,1009.79
2019-03-22T01:29:38.765Z,1009.81
2019-03-22T01:30:38.790Z,1009.82
2019-03-22T01:31:38.817Z,1009.79
2019-03-22T01:32:38.842Z,1009.74
2019-03-22T01:33:38.867Z,1009.71
2019-03-22T01:34:38.892Z,1009.69
2019-03-22T01:35:38.917Z,1009.67
2019-03-22T01:36:38.943Z,1009.64
2019-03-22T01:37:38.968Z,1009.62
2019-03-22T01:38:38.992Z,1009.62
2019-03-22T01:39:39.019Z,1009.62
2019-03-22T01:40:39.043Z,1009.56
2019-03-22T01:41:39.071Z,1009.55
2019-03-22T01:42:39.094Z,1009.54
2019-03-22T01:43:39.119Z,1009.55
2019-03-22T01:44:39.145Z,1009.56
2019-03-22T01:45:39.170Z,1009.47
2019-03-22T01:46:39.194Z,1009.46
2019-03-22T01:47:39.219Z,1009.46
2019-03-22T01:48:39.247Z,1009.46
2019-03-22T01:49:39.271Z,1009.47
2019-03-22T01:50:39.294Z,1009.47
2019-03-22T01:51:39.322Z,1009.51
2019-03-22T01:52:39.346Z,1009.44
2019-03-22T01:53:39.372Z,1009.40
2019-03-22T01:54:39.401Z,1009.43
2019-03-22T01:55:39.421Z,1009.44
2019-03-22T01:56:39.447Z,1009.45
2019-03-22T01:57:39.473Z,1009.43
2019-03-22T01:58:39.496Z,1009.41
2019-03-22T01:59:39.523Z,1009.44
2019-03-22T02:00:39.549Z,1009.45
2019-03-22T02:01:39.573Z,1009.44
2019-03-22T02:02:39.598Z,1009.46
2019-03-22T02:03:39.623Z,1009.52
2019-03-22T02:04:39.649Z,1009.47
2019-03-22T02:05:39.674Z,1009.51
2019-03-22T02:06:39.699Z,1009.46
2019-03-22T02:07:39.724Z,1009.48
2019-03-22T02:08:39.748Z,1009.51
2019-03-22T02:09:39.775Z,1009.50
2019-03-22T02:10:39.801Z,1009.51
2019-03-22T02:11:39.825Z,1009.52
2019-03-22T02:12:39.852Z,1009.54
2019-03-22T02:13:39.878Z,1009.54
2019-03-22T02:14:39.901Z,1009.48
2019-03-22T02:15:39.928Z,1009.49
2019-03-22T02:16:39.954Z,1009.51
2019-03-22T02:17:39.978Z,1009.49
2019-03-22T02:18:40.003Z,1009.52
2019-03-22T02:19:40.029Z,1009.57
2019-03-22T02:20:40.055Z,1009.50
2019-03-22T02:21:40.082Z,1009.55
2019-03-22T02:22:40.310Z,1009.48
2019-03-22T02:27:40.646Z,1009.41
2019-03-22T02:28:40.258Z,1009.38
2019-03-22T02:29:40.284Z,1009.39
2019-03-22T02:30:40.320Z,1009.41
2019-03-22T02:31:40.342Z,1009.41
2019-03-22T02:32:40.368Z,1009.40
2019-03-22T02:33:40.396Z,1009.42
2019-03-22T02:34:40.416Z,1009.35
2019-03-22T02:35:40.439Z,1009.38
2019-03-22T02:36:40.463Z,1009.34
2019-03-22T02:37:40.489Z,1009.36
2019-03-22T02:38:40.516Z,1009.34
2019-03-22T02:39:40.727Z,1009.32
2019-03-22T02:40:40.565Z,1009.32
2019-03-22T02:41:40.592Z,1009.38
2019-03-22T02:42:40.622Z,1009.32
2019-03-22T02:43:40.643Z,1009.34
2019-03-22T02:44:40.674Z,1009.33
2019-03-22T02:45:40.694Z,1009.31
2019-03-22T02:46:40.734Z,1009.34
2019-03-22T02:47:40.746Z,1009.33
2019-03-22T02:48:40.771Z,1009.35
2019-03-22T02:49:40.797Z,1009.33
2019-03-22T02:50:40.822Z,1009.33
2019-03-22T02:51:40.850Z,1009.37
2019-03-22T02:52:40.872Z,1009.37
2019-03-22T02:53:40.899Z,1009.44
2019-03-22T02:54:40.924Z,1009.40
2019-03-22T02:55:40.963Z,1009.42
2019-03-22T02:56:40.977Z,1009.41
2019-03-22T02:57:41.002Z,1009.37
2019-03-22T02:58:41.028Z,1009.42
2019-03-22T02:59:41.056Z,1009.53
2019-03-22T03:00:41.084Z,1009.45
2019-03-22T03:01:41.104Z,1009.52
2019-03-22T03:02:41.129Z,1009.58
2019-03-22T03:03:41.156Z,1009.57
2019-03-22T03:04:41.179Z,1009.59
2019-03-22T03:05:41.228Z,1009.61
2019-03-22T03:06:41.232Z,1009.56
2019-03-22T03:07:41.263Z,1009.58
2019-03-22T03:08:41.287Z,1009.59
2019-03-22T03:09:41.308Z,1009.61
2019-03-22T03:10:41.331Z,1009.64
2019-03-22T03:11:41.361Z,1009.65
2019-03-22T03:12:41.414Z,1009.72
2019-03-22T03:13:41.409Z,1009.64
2019-03-22T03:14:41.433Z,1009.67
2019-03-22T03:15:41.459Z,1009.70
2019-03-22T03:16:41.485Z,1009.68
2019-03-22T03:17:41.608Z,1009.72
2019-03-22T03:18:41.535Z,1009.77
2019-03-22T03:19:41.562Z,1009.73
2019-03-22T03:20:41.586Z,1009.72
2019-03-22T03:21:41.624Z,1009.64
2019-03-22T03:22:41.636Z,1009.70
2019-03-22T03:23:41.663Z,1009.69
2019-03-22T03:24:41.719Z,1009.62
2019-03-22T03:25:41.714Z,1009.66
2019-03-22T03:26:41.739Z,1009.66
2019-03-22T03:27:41.765Z,1009.58
2019-03-22T03:28:41.793Z,1009.58
2019-03-22T03:29:41.813Z,1009.61
2019-03-22T03:30:41.839Z,1009.57
2019-03-22T03:31:41.866Z,1009.58
2019-03-22T03:32:41.925Z,1009.60
2019-03-22T03:33:41.942Z,1009.57
2019-03-22T03:34:41.940Z,1009.62
2019-03-22T03:35:41.965Z,1009.59
2019-03-22T03:36:41.991Z,1009.54
2019-03-22T03:37:42.017Z,1009.59
2019-03-22T03:38:42.044Z,1009.59
2019-03-22T03:39:42.067Z,1009.57
2019-03-22T03:40:42.091Z,1009.64
2019-03-22T03:41:42.123Z,1009.58
2019-03-22T03:42:42.151Z,1009.59
2019-03-22T03:43:42.248Z,1009.64
2019-03-22T03:44:42.192Z,1009.62
2019-03-22T03:45:42.218Z,1009.62
2019-03-22T03:46:42.318Z,1009.62
2019-03-22T03:47:42.270Z,1009.65
2019-03-22T03:48:42.300Z,1009.64
2019-03-22T03:49:42.336Z,1009.59
2019-03-22T03:50:42.346Z,1009.66
2019-03-22T03:51:42.477Z,1009.67
2019-03-22T03:52:42.399Z,1009.71
2019-03-22T03:53:42.425Z,1009.68
2019-03-22T03:54:42.447Z,1009.65
2019-03-22T03:55:42.473Z,1009.66
2019-03-22T03:56:42.497Z,1009.71
2019-03-22T03:57:42.524Z,1009.74
2019-03-22T03:58:52.186Z,1009.73
2019-03-22T03:59:42.575Z,1009.77
2019-03-22T04:00:42.607Z,1009.77
2019-03-22T04:01:42.625Z,1009.77
2019-03-22T04:02:42.648Z,1009.79
2019-03-22T04:03:42.677Z,1009.80
2019-03-22T04:04:42.709Z,1009.84
2019-03-22T04:05:42.726Z,1009.84
2019-03-22T04:06:42.766Z,1009.87
2019-03-22T04:07:42.778Z,1009.86
2019-03-22T04:08:42.803Z,1009.86
2019-03-22T04:09:42.830Z,1009.85
2019-03-22T04:10:42.854Z,1009.85
2019-03-22T04:11:42.880Z,1009.78
2019-03-22T04:12:42.905Z,1009.77
2019-03-22T04:13:44.984Z,1009.76
2019-03-22T04:14:42.954Z,1009.80
2019-03-22T04:15:42.981Z,1009.82
2019-03-22T04:16:43.158Z,1009.86
2019-03-22T04:17:43.032Z,1009.82
2019-03-22T04:18:43.063Z,1009.88
2019-03-22T04:19:43.083Z,1009.85
2019-03-22T04:20:43.108Z,1009.88
2019-03-22T04:21:43.136Z,1009.86
2019-03-22T04:22:43.166Z,1009.90
2019-03-22T04:23:43.185Z,1009.89
2019-03-22T04:24:43.209Z,1009.87
2019-03-22T04:25:43.236Z,1009.87
2019-03-22T04:26:43.266Z,1009.88
2019-03-22T04:27:43.289Z,1009.90
2019-03-22T04:28:43.313Z,1009.91
2019-03-22T04:29:43.343Z,1009.94
2019-03-22T04:30:43.368Z,1009.91
2019-03-22T04:31:43.387Z,1009.94
2019-03-22T04:32:43.412Z,1009.99
2019-03-22T04:33:43.445Z,1009.97
2019-03-22T04:34:43.463Z,1009.98
2019-03-22T04:35:43.491Z,1009.97
2019-03-22T04:36:43.528Z,1009.93
2019-03-22T04:37:43.541Z,1009.92
2019-03-22T04:38:43.565Z,1009.95
2019-03-22T04:39:43.590Z,1009.96
2019-03-22T04:40:43.622Z,1009.96
2019-03-22T04:41:43.654Z,1010.00
2019-03-22T04:42:43.667Z,1009.95
2019-03-22T04:43:43.693Z,1009.97
2019-03-22T04:44:43.719Z,1009.91
2019-03-22T04:45:43.742Z,1009.95
2019-03-22T04:46:43.771Z,1009.96
2019-03-22T04:47:45.961Z,1009.95
2019-03-22T04:48:43.819Z,1010.00
2019-03-22T04:49:43.845Z,1010.02
2019-03-22T04:50:43.870Z,1009.97
2019-03-22T04:51:43.894Z,1009.95
2019-03-22T04:52:43.920Z,1009.91
2019-03-22T04:53:43.946Z,1009.96
2019-03-22T04:54:43.971Z,1010.01
2019-03-22T04:55:43.995Z,1009.99
2019-03-22T04:56:44.022Z,1009.95
2019-03-22T04:57:44.046Z,1009.97
2019-03-22T04:58:46.599Z,1009.89
2019-03-22T04:59:44.097Z,1009.91
2019-03-22T05:00:44.122Z,1009.93
2019-03-22T05:01:44.153Z,1009.98
2019-03-22T05:02:44.173Z,1010.00
2019-03-22T05:03:44.264Z,1010.00
2019-03-22T05:04:44.224Z,1010.01
2019-03-22T05:05:44.249Z,1010.09
2019-03-22T05:06:44.273Z,1010.08
2019-03-22T05:07:44.300Z,1010.09
2019-03-22T05:08:44.325Z,1010.11
2019-03-22T05:09:44.387Z,1010.08
2019-03-22T05:10:44.375Z,1010.12
2019-03-22T05:11:44.401Z,1010.12
2019-03-22T05:12:44.426Z,1010.08
2019-03-22T05:13:44.451Z,1010.08
2019-03-22T05:14:44.476Z,1010.08
2019-03-22T05:15:44.502Z,1010.08
2019-03-22T05:16:44.530Z,1010.09
2019-03-22T05:17:44.552Z,1010.13
2019-03-22T05:18:44.583Z,1010.10
2019-03-22T05:19:44.603Z,1010.11
2019-03-22T05:20:44.629Z,1010.07
2019-03-22T05:21:44.654Z,1010.13
2019-03-22T05:22:44.678Z,1010.09
2019-03-22T05:23:44.703Z,1010.13
2019-03-22T05:24:44.729Z,1010.13
2019-03-22T05:25:44.755Z,1010.13
2019-03-22T05:26:44.780Z,1010.11
2019-03-22T05:27:44.809Z,1010.12
2019-03-22T05:28:44.831Z,1010.14
2019-03-22T05:29:44.856Z,1010.14
2019-03-22T05:30:44.883Z,1010.16
2019-03-22T05:31:44.906Z,1010.18
2019-03-22T05:32:44.931Z,1010.17
2019-03-22T05:33:44.959Z,1010.17
2019-03-22T05:34:44.982Z,1010.22
2019-03-22T05:35:45.007Z,1010.21
2019-03-22T05:36:45.056Z,1010.24
2019-03-22T05:37:45.059Z,1010.22
2019-03-22T05:38:45.088Z,1010.26
2019-03-22T05:39:45.109Z,1010.23
2019-03-22T05:40:45.135Z,1010.23
2019-03-22T05:41:45.159Z,1010.29
2019-03-22T05:42:45.183Z,1010.26
2019-03-22T05:43:45.210Z,1010.29
2019-03-22T05:44:45.237Z,1010.29
2019-03-22T05:45:45.261Z,1010.35
2019-03-22T05:46:45.285Z,1010.29
2019-03-22T05:47:45.312Z,1010.28
2019-03-22T05:48:45.337Z,1010.33
2019-03-22T05:49:45.363Z,1010.33
2019-03-22T05:50:45.386Z,1010.33
2019-03-22T05:51:45.413Z,1010.31
2019-03-22T05:52:45.437Z,1010.32
2019-03-22T05:53:45.464Z,1010.30
2019-03-22T05:54:45.489Z,1010.31
2019-03-22T05:55:45.514Z,1010.31
2019-03-22T05:56:45.538Z,1010.28
2019-03-22T05:57:45.564Z,1010.37
2019-03-22T05:58:45.589Z,1010.43
2019-03-22T05:59:45.614Z,1010.39
2019-03-22T06:00:45.644Z,1010.41
2019-03-22T06:01:45.670Z,1010.44
2019-03-22T06:02:45.689Z,1010.42
2019-03-22T06:03:45.715Z,1010.45
2019-03-22T06:04:45.741Z,1010.47
2019-03-22T06:05:45.768Z,1010.47
2019-03-22T06:06:45.792Z,1010.46
2019-03-22T06:07:45.823Z,1010.44
2019-03-22T06:08:45.842Z,1010.46
2019-03-22T06:09:45.867Z,1010.49
2019-03-22T06:10:45.891Z,1010.55
2019-03-22T06:11:45.917Z,1010.56
2019-03-22T06:12:45.943Z,1010.52
2019-03-22T06:13:45.970Z,1010.58
2019-03-22T06:14:45.992Z,1010.57
2019-03-22T06:15:46.017Z,1010.58
2019-03-22T06:16:46.046Z,1010.58
2019-03-22T06:17:51.728Z,1010.61
2019-03-22T06:18:46.098Z,1010.61
2019-03-22T06:19:46.119Z,1010.61
2019-03-22T06:20:46.144Z,1010.56
2019-03-22T06:21:46.169Z,1010.58
2019-03-22T06:22:46.196Z,1010.63
2019-03-22T06:23:46.224Z,1010.59
2019-03-22T06:24:46.245Z,1010.61
2019-03-22T06:25:46.271Z,1010.58
2019-03-22T06:26:46.296Z,1010.62
2019-03-22T06:27:46.321Z,1010.59
2019-03-22T06:28:46.350Z,1010.58
2019-03-22T06:29:54.085Z,1010.57
2019-03-22T06:30:46.397Z,1010.61
2019-03-22T06:31:46.426Z,1010.56
2019-03-22T06:32:46.449Z,1010.59
2019-03-22T06:33:46.474Z,1010.55
2019-03-22T06:34:46.499Z,1010.61
2019-03-22T06:35:46.526Z,1010.62
2019-03-22T06:36:46.552Z,1010.57
2019-03-22T06:37:46.578Z,1010.57
2019-03-22T06:38:46.601Z,1010.54
2019-03-22T06:39:46.629Z,1010.56
2019-03-22T06:40:46.653Z,1010.54
2019-03-22T06:41:46.679Z,1010.51
2019-03-22T06:42:46.704Z,1010.50
2019-03-22T06:43:46.730Z,1010.50
2019-03-22T06:44:46.756Z,1010.47
2019-03-22T06:45:46.782Z,1010.52
2019-03-22T06:46:46.809Z,1010.51
2019-03-22T06:47:46.833Z,1010.55
2019-03-22T06:48:46.859Z,1010.52
2019-03-22T06:49:46.886Z,1010.54
2019-03-22T06:50:46.910Z,1010.57
2019-03-22T06:51:46.936Z,1010.53
2019-03-22T06:52:46.962Z,1010.51
2019-03-22T06:53:46.988Z,1010.60
2019-03-22T06:54:47.016Z,1010.56
2019-03-22T06:55:47.040Z,1010.59
2019-03-22T06:56:47.065Z,1010.57
2019-03-22T06:57:47.092Z,1010.58
2019-03-22T06:58:47.117Z,1010.61
2019-03-22T06:59:47.146Z,1010.53
2019-03-22T07:00:47.169Z,1010.58
2019-03-22T07:01:47.195Z,1010.60
2019-03-22T07:02:47.222Z,1010.60
2019-03-22T07:03:47.251Z,1010.54
2019-03-22T07:04:47.278Z,1010.53
2019-03-22T07:05:47.302Z,1010.57
2019-03-22T07:06:47.326Z,1010.55
2019-03-22T07:07:47.355Z,1010.58
2019-03-22T07:08:47.381Z,1010.57
2019-03-22T07:09:47.406Z,1010.53
2019-03-22T07:10:47.433Z,1010.53
2019-03-22T07:11:47.458Z,1010.56
2019-03-22T07:12:47.485Z,1010.55
2019-03-22T07:13:47.512Z,1010.53
2019-03-22T07:14:47.538Z,1010.58
2019-03-22T07:15:47.570Z,1010.56
2019-03-22T07:16:47.592Z,1010.57
2019-03-22T07:17:47.619Z,1010.57
2019-03-22T07:18:47.645Z,1010.53
2019-03-22T07:19:47.673Z,1010.54
2019-03-22T07:20:47.699Z,1010.56
2019-03-22T07:21:47.728Z,1010.52
2019-03-22T07:22:47.753Z,1010.50
2019-03-22T07:23:47.779Z,1010.53
2019-03-22T07:24:47.807Z,1010.49
2019-03-22T07:25:47.834Z,1010.54
2019-03-22T07:26:47.863Z,1010.53
2019-03-22T07:27:47.888Z,1010.55
2019-03-22T07:28:47.965Z,1010.60
2019-03-22T07:29:47.942Z,1010.60
2019-03-22T07:30:48.023Z,1010.62
2019-03-22T07:31:47.997Z,1010.60
2019-03-22T07:32:48.028Z,1010.60
2019-03-22T07:33:48.052Z,1010.61
2019-03-22T07:34:48.079Z,1010.60
2019-03-22T07:35:48.106Z,1010.52
2019-03-22T07:36:48.135Z,1010.60
2019-03-22T07:37:48.186Z,1010.61
2019-03-22T07:38:48.188Z,1010.61
2019-03-22T07:39:48.217Z,1010.62
2019-03-22T07:40:48.246Z,1010.64
2019-03-22T07:41:48.292Z,1010.64
2019-03-22T07:42:48.525Z,1010.64
2019-03-22T07:43:48.610Z,1010.60
2019-03-22T07:46:48.412Z,1010.57
2019-03-22T07:47:48.439Z,1010.58
2019-03-22T07:48:48.468Z,1010.53
2019-03-22T07:49:48.495Z,1010.48
2019-03-22T07:50:48.525Z,1010.51
2019-03-22T07:51:48.551Z,1010.53
2019-03-22T07:52:48.582Z,1010.47
2019-03-22T07:53:49.239Z,1010.48
2019-03-22T07:54:48.640Z,1010.45
2019-03-22T07:55:48.665Z,1010.46
2019-03-22T07:56:48.694Z,1010.43
2019-03-22T07:57:48.723Z,1010.41
2019-03-22T07:58:48.753Z,1010.40
2019-03-22T07:59:48.782Z,1010.35
2019-03-22T08:00:48.815Z,1010.36
2019-03-22T08:01:48.838Z,1010.32
2019-03-22T08:02:48.866Z,1010.34
2019-03-22T08:03:48.895Z,1010.36
2019-03-22T08:04:48.924Z,1010.38
2019-03-22T08:05:51.450Z,1010.33
2019-03-22T08:06:48.983Z,1010.34
2019-03-22T08:07:49.013Z,1010.35
2019-03-22T08:08:49.042Z,1010.25
2019-03-22T08:09:51.262Z,1010.24
2019-03-22T08:10:49.099Z,1010.24
2019-03-22T08:11:49.135Z,1010.26
2019-03-22T08:12:49.160Z,1010.24
2019-03-22T08:13:49.249Z,1010.26
2019-03-22T08:14:49.237Z,1010.31
2019-03-22T08:15:49.249Z,1010.25
2019-03-22T08:16:49.279Z,1010.28
2019-03-22T08:17:49.310Z,1010.27
2019-03-22T08:18:49.348Z,1010.25
2019-03-22T08:19:49.369Z,1010.23
2019-03-22T08:20:49.403Z,1010.26
2019-03-22T08:21:49.431Z,1010.24
2019-03-22T08:22:49.490Z,1010.23
2019-03-22T08:23:49.491Z,1010.27
2019-03-22T08:24:49.537Z,1010.28
2019-03-22T08:25:49.562Z,1010.28
2019-03-22T08:26:49.583Z,1010.29
2019-03-22T08:27:49.613Z,1010.25
2019-03-22T08:28:49.646Z,1010.24
2019-03-22T08:29:49.679Z,1010.25
2019-03-22T08:30:49.722Z,1010.23
2019-03-22T08:31:49.745Z,1010.23
2019-03-22T08:32:50.604Z,1010.21
2019-03-22T08:33:49.805Z,1010.22
2019-03-22T08:34:49.856Z,1010.18
2019-03-22T08:35:49.860Z,1010.18
2019-03-22T08:36:49.893Z,1010.21
2019-03-22T08:37:52.831Z,1010.19
2019-03-22T08:38:49.955Z,1010.23
2019-03-22T08:39:49.985Z,1010.16
2019-03-22T08:40:50.017Z,1010.16
2019-03-22T08:41:50.049Z,1010.15
2019-03-22T08:42:50.083Z,1010.16
2019-03-22T08:43:50.133Z,1010.14
2019-03-22T08:44:50.160Z,1010.17
2019-03-22T08:45:50.402Z,1010.16
2019-03-22T08:46:50.207Z,1010.16
2019-03-22T08:47:50.235Z,1010.20
2019-03-22T08:48:50.293Z,1010.22
2019-03-22T08:49:50.475Z,1010.18
2019-03-22T08:50:50.377Z,1010.15
2019-03-22T08:51:50.365Z,1010.23
2019-03-22T08:52:50.393Z,1010.20
2019-03-22T08:53:55.381Z,1010.19
2019-03-22T08:54:50.459Z,1010.18
2019-03-22T08:55:50.489Z,1010.20
2019-03-22T08:56:50.522Z,1010.20
2019-03-22T08:57:50.573Z,1010.21
2019-03-22T08:58:50.628Z,1010.31
2019-03-22T08:59:50.661Z,1010.40
2019-03-22T09:00:57.291Z,1010.42
2019-03-22T09:01:50.694Z,1010.48
2019-03-22T09:02:50.724Z,1010.46
2019-03-22T09:03:50.763Z,1010.45
2019-03-22T09:04:50.944Z,1010.47
2019-03-22T09:05:50.826Z,1010.43
2019-03-22T09:06:50.910Z,1010.42
2019-03-22T09:07:50.926Z,1010.40
2019-03-22T09:08:50.955Z,1010.42
2019-03-22T09:09:51.222Z,1010.47
2019-03-22T09:10:51.017Z,1010.41
2019-03-22T09:11:51.059Z,1010.36
2019-03-22T09:12:51.131Z,1010.36
2019-03-22T09:13:53.677Z,1010.37
2019-03-22T09:14:51.219Z,1010.35
2019-03-22T09:15:51.229Z,1010.35
2019-03-22T09:16:51.240Z,1010.37
2019-03-22T09:17:51.290Z,1010.33
2019-03-22T09:18:51.344Z,1010.38
2019-03-22T09:19:51.361Z,1010.37
2019-03-22T09:20:51.374Z,1010.36
2019-03-22T09:21:51.427Z,1010.36
2019-03-22T09:22:51.743Z,1010.31
2019-03-22T09:23:51.489Z,1010.35
2019-03-22T09:24:51.571Z,1010.32
2019-03-22T09:25:51.591Z,1010.35
2019-03-22T09:26:51.645Z,1010.36
2019-03-22T09:27:51.646Z,1010.39
2019-03-22T09:28:51.685Z,1010.39
2019-03-22T09:29:51.772Z,1010.38
2019-03-22T09:30:51.836Z,1010.38
2019-03-22T09:31:53.693Z,1010.34
2019-03-22T09:32:51.854Z,1010.39
2019-03-22T09:33:51.892Z,1010.41
2019-03-22T09:34:51.952Z,1010.41
2019-03-22T09:35:52.176Z,1010.46
2019-03-22T09:36:52.015Z,1010.38
2019-03-22T09:37:52.106Z,1010.41
2019-03-22T09:38:52.092Z,1010.40
2019-03-22T09:39:52.141Z,1010.39
2019-03-22T09:40:52.173Z,1010.41
2019-03-22T09:41:52.233Z,1010.45
2019-03-22T09:45:53.502Z,1010.48
2019-03-22T09:46:52.515Z,1010.47
2019-03-22T09:49:52.550Z,1010.50
2019-03-22T09:50:52.591Z,1010.52
2019-03-22T09:51:55.104Z,1010.46
2019-03-22T09:52:52.678Z,1010.53
2019-03-22T09:53:52.719Z,1010.44
2019-03-22T09:54:52.805Z,1010.53
2019-03-22T09:55:52.840Z,1010.59
2019-03-22T09:56:52.868Z,1010.58
2019-03-22T09:57:52.954Z,1010.61
2019-03-22T09:58:53.005Z,1010.64
2019-03-22T09:59:52.976Z,1010.65
2019-03-22T10:00:53.095Z,1010.52
2019-03-22T10:01:53.097Z,1010.62
2019-03-22T10:02:53.109Z,1010.67
2019-03-22T10:03:53.148Z,1010.63
2019-03-22T10:04:53.212Z,1010.67
2019-03-22T10:05:53.271Z,1010.65
2019-03-22T10:06:53.304Z,1010.65
2019-03-22T10:07:53.323Z,1010.64
2019-03-22T10:08:53.370Z,1010.67
2019-03-22T10:09:53.412Z,1010.66
2019-03-22T10:12:21.317Z,1010.64
2019-03-22T10:13:21.376Z,1010.63
2019-03-22T10:14:21.608Z,1010.60
2019-03-22T10:15:21.469Z,1010.54
2019-03-22T10:16:21.543Z,1010.50
2019-03-22T10:17:21.740Z,1010.56
2019-03-22T10:18:21.586Z,1010.62
2019-03-22T10:23:05.157Z,1010.55
2019-03-22T10:24:04.491Z,1010.57
2019-03-22T10:25:05.001Z,1010.59
2019-03-22T10:26:04.655Z,1010.59
2019-03-22T10:27:05.335Z,1010.62
2019-03-22T10:28:04.706Z,1010.64
2019-03-22T10:29:06.871Z,1010.63
2019-03-22T10:30:04.755Z,1010.66
2019-03-22T10:31:04.836Z,1010.64
2019-03-22T10:32:04.920Z,1010.65
2019-03-22T10:33:04.891Z,1010.68
2019-03-22T10:34:04.938Z,1010.67
2019-03-22T10:35:05.013Z,1010.64
2019-03-22T10:36:05.029Z,1010.61
2019-03-22T10:37:05.074Z,1010.64
2019-03-22T10:38:15.346Z,1010.62
2019-03-22T10:39:05.171Z,1010.60
2019-03-22T10:40:05.284Z,1010.60
2019-03-22T10:41:05.267Z,1010.60
2019-03-22T10:42:05.308Z,1010.54
2019-03-22T10:43:05.371Z,1010.55
2019-03-22T10:44:05.411Z,1010.60
2019-03-22T10:45:05.478Z,1010.68
2019-03-22T10:46:07.833Z,1010.72
2019-03-22T10:47:05.544Z,1010.70
2019-03-22T10:48:05.594Z,1010.68
2019-03-22T10:49:05.663Z,1010.65
2019-03-22T10:50:05.782Z,1010.72
2019-03-22T10:51:05.734Z,1010.74
2019-03-22T10:52:05.791Z,1010.74
2019-03-22T10:53:05.847Z,1010.73
2019-03-22T10:54:05.925Z,1010.75
2019-03-22T10:55:23.196Z,1010.75
2019-03-22T10:56:05.972Z,1010.79
2019-03-22T10:57:06.019Z,1010.70
2019-03-22T10:58:19.866Z,1010.74
2019-03-22T10:59:06.118Z,1010.72
2019-03-22T11:00:06.164Z,1010.71
2019-03-22T11:01:08.273Z,1010.71
2019-03-22T11:02:07.839Z,1010.69
2019-03-22T11:03:06.311Z,1010.76
2019-03-22T11:05:06.405Z,1010.73
2019-03-22T11:06:06.453Z,1010.74
2019-03-22T11:07:06.831Z,1010.72
2019-03-22T11:08:06.554Z,1010.71
2019-03-22T11:09:06.598Z,1010.75
2019-03-22T11:10:06.649Z,1010.69
2019-03-22T11:11:06.698Z,1010.71
2019-03-22T11:12:12.189Z,1010.69
2019-03-22T11:13:06.794Z,1010.73
2019-03-22T11:14:06.841Z,1010.79
2019-03-22T11:15:06.891Z,1010.82
2019-03-22T11:16:06.939Z,1010.75
2019-03-22T11:17:06.991Z,1010.80
2019-03-22T11:18:07.039Z,1010.81
2019-03-22T11:19:07.086Z,1010.79
2019-03-22T11:20:07.362Z,1010.85
2019-03-22T11:21:07.182Z,1010.83
2019-03-22T11:22:07.562Z,1010.84
2019-03-22T11:23:07.302Z,1010.83
2019-03-22T11:24:07.330Z,1010.82
2019-03-22T11:25:07.403Z,1010.85
2019-03-22T11:26:07.428Z,1010.83
2019-03-22T11:27:07.478Z,1010.82
2019-03-22T11:28:07.528Z,1010.82
2019-03-22T11:29:07.577Z,1010.84
2019-03-22T11:30:07.626Z,1010.85
2019-03-22T11:31:07.676Z,1010.79
2019-03-22T11:32:12.607Z,1010.69
2019-03-22T11:33:07.774Z,1010.60
2019-03-22T11:34:07.828Z,1010.49
2019-03-22T11:35:07.876Z,1010.55
2019-03-22T11:36:07.926Z,1010.63
2019-03-22T11:37:07.974Z,1010.64
2019-03-22T11:38:08.027Z,1010.63
2019-03-22T11:39:15.475Z,1010.72
2019-03-22T11:40:08.125Z,1010.73
2019-03-22T11:41:08.175Z,1010.63
2019-03-22T11:42:08.223Z,1010.68
2019-03-22T11:43:09.108Z,1010.65
2019-03-22T11:44:08.325Z,1010.71
2019-03-22T11:45:08.372Z,1010.68
2019-03-22T11:46:08.425Z,1010.70
2019-03-22T11:47:08.473Z,1010.65
2019-03-22T11:48:08.522Z,1010.64
2019-03-22T11:49:08.581Z,1010.54
2019-03-22T11:50:08.621Z,1010.51
2019-03-22T11:51:08.671Z,1010.48
2019-03-22T11:52:08.725Z,1010.48
2019-03-22T11:53:08.771Z,1010.53
2019-03-22T11:54:08.820Z,1010.54
2019-03-22T11:55:08.870Z,1010.63
2019-03-22T11:56:09.507Z,1010.71
2019-03-22T11:57:08.970Z,1010.73
2019-03-22T11:58:09.030Z,1010.80
2019-03-22T11:59:09.069Z,1010.67
2019-03-22T12:00:09.119Z,1010.70
2019-03-22T12:01:19.023Z,1010.79
2019-03-22T12:02:09.227Z,1010.69
2019-03-22T12:03:09.268Z,1010.75
2019-03-22T12:04:09.324Z,1010.63
2019-03-22T12:05:09.371Z,1010.76
2019-03-22T12:06:09.420Z,1010.73
2019-03-22T12:07:09.473Z,1010.67
2019-03-22T12:08:09.522Z,1010.68
2019-03-22T12:09:09.573Z,1010.73
2019-03-22T12:10:09.624Z,1010.73
2019-03-22T12:11:09.676Z,1010.69
2019-03-22T12:12:09.725Z,1010.73
2019-03-22T12:13:09.776Z,1010.65
2019-03-22T12:14:09.826Z,1010.59
2019-03-22T12:15:09.876Z,1010.58
2019-03-22T12:16:09.928Z,1010.62
2019-03-22T12:17:09.981Z,1010.66
2019-03-22T12:18:10.031Z,1010.67
2019-03-22T12:19:10.080Z,1010.67
2019-03-22T12:20:10.131Z,1010.63
2019-03-22T12:21:10.181Z,1010.69
2019-03-22T12:22:10.233Z,1010.63
2019-03-22T12:23:10.284Z,1010.64